Flight Track Log - Related Links

Times and Time Zones

All times are in EDT time to prevent confusion due to time zone crossing. See the EJA929 flight status page for this flight to view local times or setup timezone preferences in your user account.

Time Position Orientation Groundspeed Altitude Reporting Facility
EDT Latitude Longitude Course Direction KTS MPH feet Rate Location/Type
Tue 08:22:10 AM 37.6000 -77.3833 329° Northwest 256 295 3,300  Level Potomac TRACON
Tue 08:23:10 AM 37.6667 -77.4167 338° Northwest 257 296 6,200 2,234 Climbing Potomac TRACON
Tue 08:24:35 AM 37.7561 -77.4697 335° Northwest 269 310 8,700 1,151 Climbing Washington Center
Tue 08:25:36 AM 37.8244 -77.5056 338° Northwest 274 315 9,000 639 Climbing Washington Center
Tue 08:26:37 AM 37.8989 -77.5444 338° Northwest 274 315 10,000 492 Climbing Washington Center
Tue 08:27:38 AM 37.9708 -77.6069 326° Northwest 286 329 10,000  Level Washington Center
Tue 08:28:37 AM 37.9461 -77.7061 252° West 237 273 10,000  Level Washington Center
Tue 08:29:37 AM 37.9697 -77.7858 291° West 243 280 10,000  Level Washington Center
Tue 08:30:38 AM 38.0417 -77.7222 35° Northeast 166 191 10,000  Level Washington Center
Tue 08:31:38 AM 38.0850 -77.6336 58° Northeast 200 230 10,000  Level Washington Center
Tue 08:32:36 AM 38.1322 -77.5478 55° Northeast 250 288 10,000  Level Washington Center
Tue 08:33:36 AM 38.1775 -77.4592 57° Northeast 277 319 10,000  Level Washington Center
Tue 08:34:37 AM 38.2450 -77.4158 27° Northeast 272 313 10,000 -496 Level Washington Center
Tue 08:35:37 AM 38.3150 -77.4600 334° Northwest 229 264 9,000 -1,261 Descending Washington Center
Tue 08:36:36 AM 38.3878 -77.4725 352° North 245 282 7,500 -1,500 Descending Washington Center
Tue 08:37:37 AM 38.4608 -77.4717 North 251 289 6,000 -1,240 Descending Washington Center
Tue 08:38:37 AM 38.5317 -77.4708 North 252 290 5,000 -496 Descending Washington Center
Tue 08:39:38 AM 38.5964 -77.4669 North 247 284 5,000  Level Washington Center
Tue 08:40:38 AM 38.6611 -77.4661 North 235 270 5,000 -254 Level Washington Center
Tue 08:41:36 AM 38.7236 -77.4650 North 229 264 4,500 -965 Descending Washington Center
Tue 08:43:01 AM 38.8167 -77.4333 15° North 231 266 2,700 -1,241 Descending Potomac TRACON
Tue 08:44:01 AM 38.8667 -77.4333 360° North 186 214 1,500 -1,000 Descending Potomac TRACON
Tue 08:45:01 AM 38.9167 -77.4333 360° North 129 148 700 -800 Descending Potomac TRACON
Tue 08:47:00 AM 38.9474 -77.4599 North  Level Estimated
Tue 08:54:00 AM 38.9474 -77.4599 195° South  Level Estimated
Tue 08:55:00 AM 38.9474 -77.4599 195° South  Level Estimated
Tue 08:56:00 AM 38.9474 -77.4599 195° South  Level Estimated

Login

Don't have an account? Register now (free) for customized features, flight alerts, and more!